Syracuse Hancock International Airport
KSYR : now visible

Airfield :











YOU CAN JOIN US ON...

 
LOGIN :

Register | Disclaimer

   EN    FR    IT 

 









Legend :    VFR   Marginal VFR   IFR   Intensive IFR   Very Intensive IFR
Visi :
Ceiling :
>= 8 km
>= 3000ft
5 to 8 km
1000 to 3000 ft
1500m to 5 km
500 to 1000 ft
800 to 1500m
200 to 500 ft
< 800m
< 200 ft
Symbols :   Thunderstorms  Fog  Heavy snow  Heavy precipitations  Wind > 20 kt






- Airport Elevation : 421 ft
- IATA code : SYR


KSYR - Syracuse Hancock International

CURRENT METAR :
  • 210154Z 00000KT 2SM -SN BKN020 OVC026 M12/M15 A3049 RMK AO2 SLP330 P0000 T11171150 $

EXPIRED METARs :
  • 210146Z 04003KT 2SM -SN BKN020 OVC027 M12/M16 A3049 RMK AO2 P0000 T11171156 $
  • 210112Z 05004KT 4SM -SN BKN026 OVC031 M11/M15 A3048 RMK AO2 P0000 T11111150 $
  • 210054Z 00000KT 5SM -SN OVC030 M11/M15 A3047 RMK AO2 SLP325 P0000 T11111150 $
  • 202354Z 02004KT 8SM -SN OVC031 M11/M15 A3046 RMK AO2 SLP321 4/007 P0000 60000 T11061150 11083 21106 53018 $

TAF KSYR
Valid from the 21 at 02:00 until the 22 at 00:00 UTC


210157Z 2102/2124 01004KT P6SM -SHSN OVC025
TEMPO 2102/2104 2SM -SHSN OVC018
FM210900 02003KT P6SM SCT025
FM211300 35005KT P6SM SKC
KZBW FIR / North America



MET'MAP, your aeronautical weather chart ! - Copyright ORBIFLY December 2007 - Disclaimer

ORBIFLY MET'MAP TEAM :

Programming & Development : Alexandra Zaïnal
Concept & original design : Baudouin d'Aumeries
Assistance for programming : Marc-Olivier Méhu
Technical & hardware support : Manuel Goepfert

Contact : metmap@orbifly.com




SOURCES & CREDITS :

   NOAA       Earth
Advisory